sensor_id;sensor_type;location;lat;lon;timestamp;temperature;humidity
76168;DHT22;64927;48.214;16.378;2023-04-15T00:00:33;6.40;80.50
76168;DHT22;64927;48.214;16.378;2023-04-15T00:02:58;6.40;80.20
76168;DHT22;64927;48.214;16.378;2023-04-15T00:05:28;6.40;80.30
76168;DHT22;64927;48.214;16.378;2023-04-15T00:07:57;6.40;80.00
76168;DHT22;64927;48.214;16.378;2023-04-15T00:10:24;6.30;81.00
76168;DHT22;64927;48.214;16.378;2023-04-15T00:12:50;6.40;81.40
76168;DHT22;64927;48.214;16.378;2023-04-15T00:15:16;6.40;80.90
76168;DHT22;64927;48.214;16.378;2023-04-15T00:17:42;6.40;80.90
76168;DHT22;64927;48.214;16.378;2023-04-15T00:20:08;6.40;81.20
76168;DHT22;64927;48.214;16.378;2023-04-15T00:22:34;6.40;81.20
76168;DHT22;64927;48.214;16.378;2023-04-15T00:25:00;6.50;81.40
76168;DHT22;64927;48.214;16.378;2023-04-15T00:27:26;6.50;81.00
76168;DHT22;64927;48.214;16.378;2023-04-15T00:29:52;6.50;81.50
76168;DHT22;64927;48.214;16.378;2023-04-15T00:32:18;6.50;81.00
76168;DHT22;64927;48.214;16.378;2023-04-15T00:34:46;6.50;80.90
76168;DHT22;64927;48.214;16.378;2023-04-15T00:37:15;6.50;81.40
76168;DHT22;64927;48.214;16.378;2023-04-15T00:39:40;6.50;81.00
76168;DHT22;64927;48.214;16.378;2023-04-15T00:42:06;6.60;81.70
76168;DHT22;64927;48.214;16.378;2023-04-15T00:44:35;6.50;81.30
76168;DHT22;64927;48.214;16.378;2023-04-15T00:47:00;6.50;81.20
76168;DHT22;64927;48.214;16.378;2023-04-15T00:49:28;6.60;80.80
76168;DHT22;64927;48.214;16.378;2023-04-15T00:51:54;6.60;81.00
76168;DHT22;64927;48.214;16.378;2023-04-15T00:54:20;6.50;81.40
76168;DHT22;64927;48.214;16.378;2023-04-15T00:56:46;6.50;81.10
76168;DHT22;64927;48.214;16.378;2023-04-15T00:59:12;6.60;81.40
76168;DHT22;64927;48.214;16.378;2023-04-15T01:01:38;6.60;81.30
76168;DHT22;64927;48.214;16.378;2023-04-15T01:04:05;6.60;81.70
76168;DHT22;64927;48.214;16.378;2023-04-15T01:06:31;6.60;81.40
76168;DHT22;64927;48.214;16.378;2023-04-15T01:08:57;6.60;81.40
76168;DHT22;64927;48.214;16.378;2023-04-15T01:11:26;6.60;81.90
76168;DHT22;64927;48.214;16.378;2023-04-15T01:13:52;6.60;80.50
76168;DHT22;64927;48.214;16.378;2023-04-15T01:16:22;6.60;81.90
76168;DHT22;64927;48.214;16.378;2023-04-15T01:18:48;6.60;81.20
76168;DHT22;64927;48.214;16.378;2023-04-15T01:21:14;6.60;81.40
76168;DHT22;64927;48.214;16.378;2023-04-15T01:23:39;6.60;81.40
76168;DHT22;64927;48.214;16.378;2023-04-15T01:26:06;6.60;81.30
76168;DHT22;64927;48.214;16.378;2023-04-15T01:28:35;6.60;81.40
76168;DHT22;64927;48.214;16.378;2023-04-15T01:31:13;6.60;81.70
76168;DHT22;64927;48.214;16.378;2023-04-15T01:33:41;6.60;81.90
76168;DHT22;64927;48.214;16.378;2023-04-15T01:36:09;6.70;81.50
76168;DHT22;64927;48.214;16.378;2023-04-15T01:38:40;6.70;81.50
76168;DHT22;64927;48.214;16.378;2023-04-15T01:41:06;6.70;81.40
76168;DHT22;64927;48.214;16.378;2023-04-15T01:43:37;6.70;81.70
76168;DHT22;64927;48.214;16.378;2023-04-15T01:46:06;6.70;81.40
76168;DHT22;64927;48.214;16.378;2023-04-15T01:48:33;6.80;81.40
76168;DHT22;64927;48.214;16.378;2023-04-15T01:50:59;6.70;81.10
76168;DHT22;64927;48.214;16.378;2023-04-15T01:53:25;6.70;81.70
76168;DHT22;64927;48.214;16.378;2023-04-15T01:55:53;6.80;81.40
76168;DHT22;64927;48.214;16.378;2023-04-15T01:58:19;6.70;81.60
76168;DHT22;64927;48.214;16.378;2023-04-15T02:00:45;6.70;81.60
76168;DHT22;64927;48.214;16.378;2023-04-15T02:03:10;6.80;81.70
76168;DHT22;64927;48.214;16.378;2023-04-15T02:05:36;6.70;81.50
76168;DHT22;64927;48.214;16.378;2023-04-15T02:08:02;6.70;81.10
76168;DHT22;64927;48.214;16.378;2023-04-15T02:10:30;6.70;81.00
76168;DHT22;64927;48.214;16.378;2023-04-15T02:12:56;6.80;81.20
76168;DHT22;64927;48.214;16.378;2023-04-15T02:15:21;6.80;81.70
76168;DHT22;64927;48.214;16.378;2023-04-15T02:17:47;6.90;81.80
76168;DHT22;64927;48.214;16.378;2023-04-15T02:20:16;6.90;82.70
76168;DHT22;64927;48.214;16.378;2023-04-15T02:22:45;6.90;81.30
76168;DHT22;64927;48.214;16.378;2023-04-15T02:25:11;6.90;81.30
76168;DHT22;64927;48.214;16.378;2023-04-15T02:27:37;6.90;80.70
76168;DHT22;64927;48.214;16.378;2023-04-15T02:30:03;6.90;81.20
76168;DHT22;64927;48.214;16.378;2023-04-15T02:32:28;6.90;81.70
76168;DHT22;64927;48.214;16.378;2023-04-15T02:34:54;6.90;81.10
76168;DHT22;64927;48.214;16.378;2023-04-15T02:37:20;6.90;80.70
76168;DHT22;64927;48.214;16.378;2023-04-15T02:39:48;6.90;80.80
76168;DHT22;64927;48.214;16.378;2023-04-15T02:42:14;6.90;81.20
76168;DHT22;64927;48.214;16.378;2023-04-15T02:44:42;7.00;80.80
76168;DHT22;64927;48.214;16.378;2023-04-15T02:47:07;7.00;80.60
76168;DHT22;64927;48.214;16.378;2023-04-15T02:49:33;6.90;81.80
76168;DHT22;64927;48.214;16.378;2023-04-15T02:51:59;6.90;81.30
76168;DHT22;64927;48.214;16.378;2023-04-15T02:54:25;7.00;81.00
76168;DHT22;64927;48.214;16.378;2023-04-15T02:56:53;7.00;80.60
76168;DHT22;64927;48.214;16.378;2023-04-15T02:59:20;6.90;80.40
76168;DHT22;64927;48.214;16.378;2023-04-15T03:01:46;6.90;80.70
76168;DHT22;64927;48.214;16.378;2023-04-15T03:04:14;7.00;81.00
76168;DHT22;64927;48.214;16.378;2023-04-15T03:06:42;7.00;81.00
76168;DHT22;64927;48.214;16.378;2023-04-15T03:09:08;7.00;80.50
76168;DHT22;64927;48.214;16.378;2023-04-15T03:11:34;7.00;80.30
76168;DHT22;64927;48.214;16.378;2023-04-15T03:14:03;7.00;80.40
76168;DHT22;64927;48.214;16.378;2023-04-15T03:16:29;7.00;80.70
76168;DHT22;64927;48.214;16.378;2023-04-15T03:18:55;7.00;81.00
76168;DHT22;64927;48.214;16.378;2023-04-15T03:21:23;7.10;80.60
76168;DHT22;64927;48.214;16.378;2023-04-15T03:23:51;7.10;81.10
76168;DHT22;64927;48.214;16.378;2023-04-15T03:26:29;7.10;80.60
76168;DHT22;64927;48.214;16.378;2023-04-15T03:28:56;7.10;81.20
76168;DHT22;64927;48.214;16.378;2023-04-15T03:31:22;7.20;81.00
76168;DHT22;64927;48.214;16.378;2023-04-15T03:33:48;7.20;80.70
76168;DHT22;64927;48.214;16.378;2023-04-15T03:36:15;7.20;81.20
76168;DHT22;64927;48.214;16.378;2023-04-15T03:38:42;7.20;81.10
76168;DHT22;64927;48.214;16.378;2023-04-15T03:41:07;7.20;82.10
76168;DHT22;64927;48.214;16.378;2023-04-15T03:43:34;7.20;82.50
76168;DHT22;64927;48.214;16.378;2023-04-15T03:46:00;7.20;82.20
76168;DHT22;64927;48.214;16.378;2023-04-15T03:48:25;7.20;83.20
76168;DHT22;64927;48.214;16.378;2023-04-15T03:50:51;7.30;83.50
76168;DHT22;64927;48.214;16.378;2023-04-15T03:53:17;7.40;83.70
76168;DHT22;64927;48.214;16.378;2023-04-15T03:55:44;7.40;83.00
76168;DHT22;64927;48.214;16.378;2023-04-15T03:58:10;7.30;82.70
76168;DHT22;64927;48.214;16.378;2023-04-15T04:00:40;7.30;83.00
76168;DHT22;64927;48.214;16.378;2023-04-15T04:03:05;7.30;82.90
76168;DHT22;64927;48.214;16.378;2023-04-15T04:05:31;7.30;83.10
76168;DHT22;64927;48.214;16.378;2023-04-15T04:07:57;7.30;83.00
76168;DHT22;64927;48.214;16.378;2023-04-15T04:10:22;7.40;82.40
76168;DHT22;64927;48.214;16.378;2023-04-15T04:12:48;7.40;82.50
76168;DHT22;64927;48.214;16.378;2023-04-15T04:15:13;7.40;82.00
76168;DHT22;64927;48.214;16.378;2023-04-15T04:17:39;7.40;82.40
76168;DHT22;64927;48.214;16.378;2023-04-15T04:20:05;7.50;83.00
76168;DHT22;64927;48.214;16.378;2023-04-15T04:22:37;7.60;83.10
76168;DHT22;64927;48.214;16.378;2023-04-15T04:25:04;7.70;82.90
76168;DHT22;64927;48.214;16.378;2023-04-15T04:27:30;7.60;82.50
76168;DHT22;64927;48.214;16.378;2023-04-15T04:29:55;7.70;82.70
76168;DHT22;64927;48.214;16.378;2023-04-15T04:32:21;7.80;82.00
76168;DHT22;64927;48.214;16.378;2023-04-15T04:34:47;7.70;82.20
76168;DHT22;64927;48.214;16.378;2023-04-15T04:37:12;7.70;82.00
76168;DHT22;64927;48.214;16.378;2023-04-15T04:39:39;7.80;81.90
76168;DHT22;64927;48.214;16.378;2023-04-15T04:42:04;7.80;81.80
76168;DHT22;64927;48.214;16.378;2023-04-15T04:44:30;7.80;81.90
76168;DHT22;64927;48.214;16.378;2023-04-15T04:46:56;7.80;81.90
76168;DHT22;64927;48.214;16.378;2023-04-15T04:49:22;7.90;81.70
76168;DHT22;64927;48.214;16.378;2023-04-15T04:51:47;7.90;82.10
76168;DHT22;64927;48.214;16.378;2023-04-15T04:54:13;7.90;82.00
76168;DHT22;64927;48.214;16.378;2023-04-15T04:56:41;7.90;81.00
76168;DHT22;64927;48.214;16.378;2023-04-15T04:59:07;7.90;81.30
76168;DHT22;64927;48.214;16.378;2023-04-15T05:01:32;7.80;81.50
76168;DHT22;64927;48.214;16.378;2023-04-15T05:03:59;7.80;81.70
76168;DHT22;64927;48.214;16.378;2023-04-15T05:06:24;7.90;81.80
76168;DHT22;64927;48.214;16.378;2023-04-15T05:08:50;7.80;81.50
76168;DHT22;64927;48.214;16.378;2023-04-15T05:11:16;7.90;81.60
76168;DHT22;64927;48.214;16.378;2023-04-15T05:13:42;7.80;81.60
76168;DHT22;64927;48.214;16.378;2023-04-15T05:16:07;7.90;82.20
76168;DHT22;64927;48.214;16.378;2023-04-15T05:18:33;8.00;81.40
76168;DHT22;64927;48.214;16.378;2023-04-15T05:21:02;8.00;81.40
76168;DHT22;64927;48.214;16.378;2023-04-15T05:23:30;8.00;81.10
76168;DHT22;64927;48.214;16.378;2023-04-15T05:25:55;8.00;81.50
76168;DHT22;64927;48.214;16.378;2023-04-15T05:28:21;8.00;82.20
76168;DHT22;64927;48.214;16.378;2023-04-15T05:30:47;8.10;81.50
76168;DHT22;64927;48.214;16.378;2023-04-15T05:33:12;8.10;82.10
76168;DHT22;64927;48.214;16.378;2023-04-15T05:35:38;8.20;81.60
76168;DHT22;64927;48.214;16.378;2023-04-15T05:38:03;8.20;80.80
76168;DHT22;64927;48.214;16.378;2023-04-15T05:40:29;8.20;80.60
76168;DHT22;64927;48.214;16.378;2023-04-15T05:42:55;8.20;80.90
76168;DHT22;64927;48.214;16.378;2023-04-15T05:45:21;8.20;81.50
76168;DHT22;64927;48.214;16.378;2023-04-15T05:47:47;8.20;81.10
76168;DHT22;64927;48.214;16.378;2023-04-15T05:50:15;8.30;81.20
76168;DHT22;64927;48.214;16.378;2023-04-15T05:52:41;8.40;80.60
76168;DHT22;64927;48.214;16.378;2023-04-15T05:55:06;8.30;80.20
76168;DHT22;64927;48.214;16.378;2023-04-15T05:57:32;8.40;81.20
76168;DHT22;64927;48.214;16.378;2023-04-15T05:59:58;8.40;80.00
76168;DHT22;64927;48.214;16.378;2023-04-15T06:02:23;8.40;80.20
76168;DHT22;64927;48.214;16.378;2023-04-15T06:04:49;8.40;80.50
76168;DHT22;64927;48.214;16.378;2023-04-15T06:07:15;8.50;80.40
76168;DHT22;64927;48.214;16.378;2023-04-15T06:09:40;8.50;80.20
76168;DHT22;64927;48.214;16.378;2023-04-15T06:12:06;8.50;80.30
76168;DHT22;64927;48.214;16.378;2023-04-15T06:14:36;8.50;79.90
76168;DHT22;64927;48.214;16.378;2023-04-15T06:17:02;8.60;80.10
76168;DHT22;64927;48.214;16.378;2023-04-15T06:19:28;8.60;80.60
76168;DHT22;64927;48.214;16.378;2023-04-15T06:21:54;8.70;80.10
76168;DHT22;64927;48.214;16.378;2023-04-15T06:24:19;8.70;80.00
76168;DHT22;64927;48.214;16.378;2023-04-15T06:26:45;8.70;79.30
76168;DHT22;64927;48.214;16.378;2023-04-15T06:29:15;8.80;79.60
76168;DHT22;64927;48.214;16.378;2023-04-15T06:31:41;8.90;79.60
76168;DHT22;64927;48.214;16.378;2023-04-15T06:34:06;8.90;79.90
76168;DHT22;64927;48.214;16.378;2023-04-15T06:36:37;8.90;79.40
76168;DHT22;64927;48.214;16.378;2023-04-15T06:39:03;8.80;77.70
76168;DHT22;64927;48.214;16.378;2023-04-15T06:41:28;8.70;78.00
76168;DHT22;64927;48.214;16.378;2023-04-15T06:43:54;8.80;79.60
76168;DHT22;64927;48.214;16.378;2023-04-15T06:46:20;8.90;79.50
76168;DHT22;64927;48.214;16.378;2023-04-15T06:48:46;9.00;78.80
76168;DHT22;64927;48.214;16.378;2023-04-15T06:51:12;9.00;78.80
76168;DHT22;64927;48.214;16.378;2023-04-15T06:53:37;9.00;77.20
76168;DHT22;64927;48.214;16.378;2023-04-15T06:56:08;9.10;77.80
76168;DHT22;64927;48.214;16.378;2023-04-15T06:58:34;9.20;78.20
76168;DHT22;64927;48.214;16.378;2023-04-15T07:01:00;9.30;76.60
76168;DHT22;64927;48.214;16.378;2023-04-15T07:03:28;9.30;77.00
76168;DHT22;64927;48.214;16.378;2023-04-15T07:05:53;9.30;76.80
76168;DHT22;64927;48.214;16.378;2023-04-15T07:08:19;9.40;77.30
76168;DHT22;64927;48.214;16.378;2023-04-15T07:10:46;9.40;76.00
76168;DHT22;64927;48.214;16.378;2023-04-15T07:13:12;9.40;75.90
76168;DHT22;64927;48.214;16.378;2023-04-15T07:15:38;9.40;75.30
76168;DHT22;64927;48.214;16.378;2023-04-15T07:18:03;9.40;75.10
76168;DHT22;64927;48.214;16.378;2023-04-15T07:20:29;9.40;75.20
76168;DHT22;64927;48.214;16.378;2023-04-15T07:22:55;9.40;75.10
76168;DHT22;64927;48.214;16.378;2023-04-15T07:25:20;9.40;75.60
76168;DHT22;64927;48.214;16.378;2023-04-15T07:27:48;9.50;74.20
76168;DHT22;64927;48.214;16.378;2023-04-15T07:30:14;9.60;74.20
76168;DHT22;64927;48.214;16.378;2023-04-15T07:32:41;9.70;73.50
76168;DHT22;64927;48.214;16.378;2023-04-15T07:35:07;9.70;73.70
76168;DHT22;64927;48.214;16.378;2023-04-15T07:37:34;9.80;75.80
76168;DHT22;64927;48.214;16.378;2023-04-15T07:40:00;9.90;73.40
76168;DHT22;64927;48.214;16.378;2023-04-15T07:42:26;9.90;73.70
76168;DHT22;64927;48.214;16.378;2023-04-15T07:44:52;10.00;73.20
76168;DHT22;64927;48.214;16.378;2023-04-15T07:47:17;10.00;72.80
76168;DHT22;64927;48.214;16.378;2023-04-15T07:49:47;10.00;72.60
76168;DHT22;64927;48.214;16.378;2023-04-15T07:52:13;10.00;72.20
76168;DHT22;64927;48.214;16.378;2023-04-15T07:54:39;10.00;72.10
76168;DHT22;64927;48.214;16.378;2023-04-15T07:57:04;10.00;72.50
76168;DHT22;64927;48.214;16.378;2023-04-15T07:59:30;10.00;74.10
76168;DHT22;64927;48.214;16.378;2023-04-15T08:01:58;10.10;72.50
76168;DHT22;64927;48.214;16.378;2023-04-15T08:04:26;10.10;72.80
76168;DHT22;64927;48.214;16.378;2023-04-15T08:06:51;10.40;73.20
76168;DHT22;64927;48.214;16.378;2023-04-15T08:09:17;10.60;71.10
76168;DHT22;64927;48.214;16.378;2023-04-15T08:11:43;10.80;70.20
76168;DHT22;64927;48.214;16.378;2023-04-15T08:14:09;10.60;70.40
76168;DHT22;64927;48.214;16.378;2023-04-15T08:16:35;10.60;70.70
76168;DHT22;64927;48.214;16.378;2023-04-15T08:19:03;10.50;71.60
76168;DHT22;64927;48.214;16.378;2023-04-15T08:21:29;10.60;73.00
76168;DHT22;64927;48.214;16.378;2023-04-15T08:23:55;11.00;72.60
76168;DHT22;64927;48.214;16.378;2023-04-15T08:26:21;11.10;70.50
76168;DHT22;64927;48.214;16.378;2023-04-15T08:28:47;11.10;69.70
76168;DHT22;64927;48.214;16.378;2023-04-15T08:31:17;11.10;69.70
76168;DHT22;64927;48.214;16.378;2023-04-15T08:33:43;11.10;70.50
76168;DHT22;64927;48.214;16.378;2023-04-15T08:36:09;11.10;70.00
76168;DHT22;64927;48.214;16.378;2023-04-15T08:38:35;11.00;69.60
76168;DHT22;64927;48.214;16.378;2023-04-15T08:41:06;11.00;70.90
76168;DHT22;64927;48.214;16.378;2023-04-15T08:43:37;11.10;72.30
76168;DHT22;64927;48.214;16.378;2023-04-15T08:46:05;11.30;69.60
76168;DHT22;64927;48.214;16.378;2023-04-15T08:48:32;11.30;69.20
76168;DHT22;64927;48.214;16.378;2023-04-15T08:51:00;11.10;70.90
76168;DHT22;64927;48.214;16.378;2023-04-15T08:53:27;11.00;69.60
76168;DHT22;64927;48.214;16.378;2023-04-15T08:55:54;10.90;69.20
76168;DHT22;64927;48.214;16.378;2023-04-15T08:58:21;10.70;70.10
76168;DHT22;64927;48.214;16.378;2023-04-15T09:00:49;10.70;70.50
76168;DHT22;64927;48.214;16.378;2023-04-15T09:03:15;10.70;70.70
76168;DHT22;64927;48.214;16.378;2023-04-15T09:05:41;10.70;70.90
76168;DHT22;64927;48.214;16.378;2023-04-15T09:08:07;10.70;71.00
76168;DHT22;64927;48.214;16.378;2023-04-15T09:10:33;10.70;72.20
76168;DHT22;64927;48.214;16.378;2023-04-15T09:13:00;10.60;71.10
76168;DHT22;64927;48.214;16.378;2023-04-15T09:15:29;10.70;71.00
76168;DHT22;64927;48.214;16.378;2023-04-15T09:17:56;10.60;70.70
76168;DHT22;64927;48.214;16.378;2023-04-15T09:20:22;10.60;70.80
76168;DHT22;64927;48.214;16.378;2023-04-15T09:22:52;10.60;69.90
76168;DHT22;64927;48.214;16.378;2023-04-15T09:25:27;10.70;70.10
76168;DHT22;64927;48.214;16.378;2023-04-15T09:27:57;10.70;69.50
76168;DHT22;64927;48.214;16.378;2023-04-15T09:30:24;10.60;68.30
76168;DHT22;64927;48.214;16.378;2023-04-15T09:32:54;10.70;68.70
76168;DHT22;64927;48.214;16.378;2023-04-15T09:35:21;10.80;67.70
76168;DHT22;64927;48.214;16.378;2023-04-15T09:37:47;10.90;70.50
76168;DHT22;64927;48.214;16.378;2023-04-15T09:40:13;11.20;69.00
76168;DHT22;64927;48.214;16.378;2023-04-15T09:42:55;11.50;70.00
76168;DHT22;64927;48.214;16.378;2023-04-15T09:45:21;11.70;68.50
76168;DHT22;64927;48.214;16.378;2023-04-15T09:47:47;11.80;66.00
76168;DHT22;64927;48.214;16.378;2023-04-15T09:50:12;11.80;65.60
76168;DHT22;64927;48.214;16.378;2023-04-15T09:52:43;11.60;65.10
76168;DHT22;64927;48.214;16.378;2023-04-15T09:55:10;11.40;65.90
76168;DHT22;64927;48.214;16.378;2023-04-15T09:57:38;11.30;66.70
76168;DHT22;64927;48.214;16.378;2023-04-15T10:00:07;11.20;67.30
76168;DHT22;64927;48.214;16.378;2023-04-15T10:02:36;11.20;68.20
76168;DHT22;64927;48.214;16.378;2023-04-15T10:05:02;11.20;69.20
76168;DHT22;64927;48.214;16.378;2023-04-15T10:07:28;11.40;67.90
76168;DHT22;64927;48.214;16.378;2023-04-15T10:09:54;11.20;64.70
76168;DHT22;64927;48.214;16.378;2023-04-15T10:12:21;11.10;66.00
76168;DHT22;64927;48.214;16.378;2023-04-15T10:14:52;10.90;67.70
76168;DHT22;64927;48.214;16.378;2023-04-15T10:17:21;10.90;68.00
76168;DHT22;64927;48.214;16.378;2023-04-15T10:19:48;10.90;67.50
76168;DHT22;64927;48.214;16.378;2023-04-15T10:22:14;11.00;68.10
76168;DHT22;64927;48.214;16.378;2023-04-15T10:24:40;11.00;68.20
76168;DHT22;64927;48.214;16.378;2023-04-15T10:27:08;11.00;67.90
76168;DHT22;64927;48.214;16.378;2023-04-15T10:29:34;11.00;68.80
76168;DHT22;64927;48.214;16.378;2023-04-15T10:32:00;11.00;66.50
76168;DHT22;64927;48.214;16.378;2023-04-15T10:34:27;11.00;67.10
76168;DHT22;64927;48.214;16.378;2023-04-15T10:36:59;11.00;67.30
76168;DHT22;64927;48.214;16.378;2023-04-15T10:39:43;10.90;68.00
76168;DHT22;64927;48.214;16.378;2023-04-15T10:42:14;10.90;68.10
76168;DHT22;64927;48.214;16.378;2023-04-15T10:44:59;11.00;67.50
76168;DHT22;64927;48.214;16.378;2023-04-15T10:47:26;11.00;68.70
76168;DHT22;64927;48.214;16.378;2023-04-15T10:50:01;11.10;67.10
76168;DHT22;64927;48.214;16.378;2023-04-15T10:52:28;11.00;68.00
76168;DHT22;64927;48.214;16.378;2023-04-15T10:55:18;11.00;69.30
76168;DHT22;64927;48.214;16.378;2023-04-15T10:57:53;11.00;68.70
76168;DHT22;64927;48.214;16.378;2023-04-15T11:00:24;11.00;69.20
76168;DHT22;64927;48.214;16.378;2023-04-15T11:02:54;11.10;69.80
76168;DHT22;64927;48.214;16.378;2023-04-15T11:08:07;11.10;68.90
76168;DHT22;64927;48.214;16.378;2023-04-15T11:15:38;11.50;67.20
76168;DHT22;64927;48.214;16.378;2023-04-15T11:18:19;11.40;69.00
76168;DHT22;64927;48.214;16.378;2023-04-15T11:20:51;11.50;68.40
76168;DHT22;64927;48.214;16.378;2023-04-15T11:23:26;11.40;67.10
76168;DHT22;64927;48.214;16.378;2023-04-15T11:25:54;11.30;68.50
76168;DHT22;64927;48.214;16.378;2023-04-15T11:28:19;11.30;68.50
76168;DHT22;64927;48.214;16.378;2023-04-15T11:30:45;11.40;67.80
76168;DHT22;64927;48.214;16.378;2023-04-15T11:33:11;11.50;67.80
76168;DHT22;64927;48.214;16.378;2023-04-15T11:35:40;11.40;69.60
76168;DHT22;64927;48.214;16.378;2023-04-15T11:38:11;11.50;67.70
76168;DHT22;64927;48.214;16.378;2023-04-15T11:40:37;11.50;67.90
76168;DHT22;64927;48.214;16.378;2023-04-15T11:43:14;11.50;67.80
76168;DHT22;64927;48.214;16.378;2023-04-15T11:48:18;11.60;66.80
76168;DHT22;64927;48.214;16.378;2023-04-15T11:50:44;11.50;67.80
76168;DHT22;64927;48.214;16.378;2023-04-15T11:53:12;11.50;67.90
76168;DHT22;64927;48.214;16.378;2023-04-15T11:55:45;11.60;67.80
76168;DHT22;64927;48.214;16.378;2023-04-15T11:58:12;11.50;68.60
76168;DHT22;64927;48.214;16.378;2023-04-15T12:00:39;11.50;67.60
76168;DHT22;64927;48.214;16.378;2023-04-15T12:14:26;11.90;66.80
76168;DHT22;64927;48.214;16.378;2023-04-15T12:17:03;11.90;65.40
76168;DHT22;64927;48.214;16.378;2023-04-15T12:19:40;12.00;65.50
76168;DHT22;64927;48.214;16.378;2023-04-15T12:22:14;11.90;63.80
76168;DHT22;64927;48.214;16.378;2023-04-15T12:24:41;11.70;65.30
76168;DHT22;64927;48.214;16.378;2023-04-15T12:27:15;11.60;65.50
76168;DHT22;64927;48.214;16.378;2023-04-15T12:29:41;11.70;65.60
76168;DHT22;64927;48.214;16.378;2023-04-15T12:32:12;11.80;65.40
76168;DHT22;64927;48.214;16.378;2023-04-15T12:34:48;11.70;65.00
76168;DHT22;64927;48.214;16.378;2023-04-15T12:37:14;11.70;65.10
76168;DHT22;64927;48.214;16.378;2023-04-15T12:39:42;11.70;64.70
76168;DHT22;64927;48.214;16.378;2023-04-15T12:42:09;11.60;64.50
76168;DHT22;64927;48.214;16.378;2023-04-15T12:44:36;11.60;64.20
76168;DHT22;64927;48.214;16.378;2023-04-15T12:47:02;11.40;65.00
76168;DHT22;64927;48.214;16.378;2023-04-15T12:49:28;11.30;65.40
76168;DHT22;64927;48.214;16.378;2023-04-15T12:51:57;11.50;66.60
76168;DHT22;64927;48.214;16.378;2023-04-15T12:54:27;11.50;66.40
76168;DHT22;64927;48.214;16.378;2023-04-15T12:56:53;11.40;66.90
76168;DHT22;64927;48.214;16.378;2023-04-15T12:59:19;11.40;65.30
76168;DHT22;64927;48.214;16.378;2023-04-15T13:01:48;11.20;65.70
76168;DHT22;64927;48.214;16.378;2023-04-15T13:04:14;11.30;66.30
76168;DHT22;64927;48.214;16.378;2023-04-15T13:06:41;11.50;66.00
76168;DHT22;64927;48.214;16.378;2023-04-15T13:09:06;11.90;65.30
76168;DHT22;64927;48.214;16.378;2023-04-15T13:11:35;12.10;66.40
76168;DHT22;64927;48.214;16.378;2023-04-15T13:14:05;12.30;65.50
76168;DHT22;64927;48.214;16.378;2023-04-15T13:16:32;12.30;63.50
76168;DHT22;64927;48.214;16.378;2023-04-15T13:18:58;12.30;63.00
76168;DHT22;64927;48.214;16.378;2023-04-15T13:21:27;12.30;62.60
76168;DHT22;64927;48.214;16.378;2023-04-15T13:23:53;12.30;62.50
76168;DHT22;64927;48.214;16.378;2023-04-15T13:26:18;12.10;62.40
76168;DHT22;64927;48.214;16.378;2023-04-15T13:28:44;11.90;62.40
76168;DHT22;64927;48.214;16.378;2023-04-15T13:31:10;12.00;63.50
76168;DHT22;64927;48.214;16.378;2023-04-15T13:33:36;12.20;62.50
76168;DHT22;64927;48.214;16.378;2023-04-15T13:36:02;12.20;61.20
76168;DHT22;64927;48.214;16.378;2023-04-15T13:38:27;12.10;62.10
76168;DHT22;64927;48.214;16.378;2023-04-15T13:40:55;12.00;62.80
76168;DHT22;64927;48.214;16.378;2023-04-15T13:43:21;12.10;62.40
76168;DHT22;64927;48.214;16.378;2023-04-15T13:45:47;12.20;62.10
76168;DHT22;64927;48.214;16.378;2023-04-15T13:48:13;12.30;61.90
76168;DHT22;64927;48.214;16.378;2023-04-15T13:50:39;12.30;61.90
76168;DHT22;64927;48.214;16.378;2023-04-15T13:53:10;12.30;61.50
76168;DHT22;64927;48.214;16.378;2023-04-15T13:55:35;12.20;61.30
76168;DHT22;64927;48.214;16.378;2023-04-15T13:58:06;11.90;60.50
76168;DHT22;64927;48.214;16.378;2023-04-15T14:00:32;11.80;61.60
76168;DHT22;64927;48.214;16.378;2023-04-15T14:02:57;11.70;62.20
76168;DHT22;64927;48.214;16.378;2023-04-15T14:05:25;11.60;62.90
76168;DHT22;64927;48.214;16.378;2023-04-15T14:07:51;11.60;63.00
76168;DHT22;64927;48.214;16.378;2023-04-15T14:10:17;11.60;63.50
76168;DHT22;64927;48.214;16.378;2023-04-15T14:12:42;11.50;63.50
76168;DHT22;64927;48.214;16.378;2023-04-15T14:15:08;11.70;63.30
76168;DHT22;64927;48.214;16.378;2023-04-15T14:17:36;11.90;62.80
76168;DHT22;64927;48.214;16.378;2023-04-15T14:20:07;12.00;62.20
76168;DHT22;64927;48.214;16.378;2023-04-15T14:22:33;12.20;62.40
76168;DHT22;64927;48.214;16.378;2023-04-15T14:24:59;12.30;61.80
76168;DHT22;64927;48.214;16.378;2023-04-15T14:27:25;12.30;61.40
76168;DHT22;64927;48.214;16.378;2023-04-15T14:29:53;12.30;60.20
76168;DHT22;64927;48.214;16.378;2023-04-15T14:32:23;12.70;61.40
76168;DHT22;64927;48.214;16.378;2023-04-15T14:34:49;12.90;58.40
76168;DHT22;64927;48.214;16.378;2023-04-15T14:37:14;12.50;58.30
76168;DHT22;64927;48.214;16.378;2023-04-15T14:39:40;12.60;60.30
76168;DHT22;64927;48.214;16.378;2023-04-15T14:42:06;12.50;59.70
76168;DHT22;64927;48.214;16.378;2023-04-15T14:44:34;12.60;60.30
76168;DHT22;64927;48.214;16.378;2023-04-15T14:47:00;12.70;60.50
76168;DHT22;64927;48.214;16.378;2023-04-15T14:49:26;12.60;60.10
76168;DHT22;64927;48.214;16.378;2023-04-15T14:51:51;12.40;58.90
76168;DHT22;64927;48.214;16.378;2023-04-15T14:54:17;12.20;58.90
76168;DHT22;64927;48.214;16.378;2023-04-15T14:56:43;12.10;59.10
76168;DHT22;64927;48.214;16.378;2023-04-15T14:59:11;12.10;59.90
76168;DHT22;64927;48.214;16.378;2023-04-15T15:01:37;12.00;60.30
76168;DHT22;64927;48.214;16.378;2023-04-15T15:04:05;11.90;60.00
76168;DHT22;64927;48.214;16.378;2023-04-15T15:06:33;11.90;59.20
76168;DHT22;64927;48.214;16.378;2023-04-15T15:08:59;11.80;60.10
76168;DHT22;64927;48.214;16.378;2023-04-15T15:11:25;11.90;60.40
76168;DHT22;64927;48.214;16.378;2023-04-15T15:13:53;11.80;60.70
76168;DHT22;64927;48.214;16.378;2023-04-15T15:16:22;11.80;61.00
76168;DHT22;64927;48.214;16.378;2023-04-15T15:18:48;11.90;61.10
76168;DHT22;64927;48.214;16.378;2023-04-15T15:21:15;12.10;61.30
76168;DHT22;64927;48.214;16.378;2023-04-15T15:23:41;12.20;59.70
76168;DHT22;64927;48.214;16.378;2023-04-15T15:26:10;12.20;59.90
76168;DHT22;64927;48.214;16.378;2023-04-15T15:28:36;12.10;60.00
76168;DHT22;64927;48.214;16.378;2023-04-15T15:31:02;12.20;60.00
76168;DHT22;64927;48.214;16.378;2023-04-15T15:33:28;12.20;59.60
76168;DHT22;64927;48.214;16.378;2023-04-15T15:35:54;12.10;60.20
76168;DHT22;64927;48.214;16.378;2023-04-15T15:38:25;12.00;60.80
76168;DHT22;64927;48.214;16.378;2023-04-15T15:40:53;12.10;60.20
76168;DHT22;64927;48.214;16.378;2023-04-15T15:43:21;12.00;60.40